sensor_id;sensor_type;location;lat;lon;timestamp;P1;durP1;ratioP1;P2;durP2;ratioP2
14760;SDS011;7472;45.396;5.272;2023-01-09T00:01:57;7.35;;;2.55;;
14760;SDS011;7472;45.396;5.272;2023-01-09T00:04:25;3.83;;;1.50;;
14760;SDS011;7472;45.396;5.272;2023-01-09T00:06:54;4.72;;;1.90;;
14760;SDS011;7472;45.396;5.272;2023-01-09T00:09:21;3.35;;;1.23;;
14760;SDS011;7472;45.396;5.272;2023-01-09T00:11:49;2.53;;;0.98;;
14760;SDS011;7472;45.396;5.272;2023-01-09T00:14:16;7.60;;;1.25;;
14760;SDS011;7472;45.396;5.272;2023-01-09T00:16:44;2.80;;;0.93;;
14760;SDS011;7472;45.396;5.272;2023-01-09T00:19:12;1.17;;;0.70;;
14760;SDS011;7472;45.396;5.272;2023-01-09T00:21:39;2.25;;;0.90;;
14760;SDS011;7472;45.396;5.272;2023-01-09T00:24:08;2.33;;;1.40;;
14760;SDS011;7472;45.396;5.272;2023-01-09T00:26:35;5.05;;;1.30;;
14760;SDS011;7472;45.396;5.272;2023-01-09T00:29:03;1.85;;;1.10;;
14760;SDS011;7472;45.396;5.272;2023-01-09T00:31:30;3.97;;;1.63;;
14760;SDS011;7472;45.396;5.272;2023-01-09T00:33:58;1.67;;;1.20;;
14760;SDS011;7472;45.396;5.272;2023-01-09T00:36:26;2.60;;;1.10;;
14760;SDS011;7472;45.396;5.272;2023-01-09T00:38:54;1.75;;;1.10;;
14760;SDS011;7472;45.396;5.272;2023-01-09T00:41:24;1.58;;;1.30;;
14760;SDS011;7472;45.396;5.272;2023-01-09T00:43:53;1.30;;;1.20;;
14760;SDS011;7472;45.396;5.272;2023-01-09T00:46:23;3.67;;;0.98;;
14760;SDS011;7472;45.396;5.272;2023-01-09T00:48:51;1.80;;;1.50;;
14760;SDS011;7472;45.396;5.272;2023-01-09T00:51:19;2.30;;;1.20;;
14760;SDS011;7472;45.396;5.272;2023-01-09T00:53:46;2.72;;;1.10;;
14760;SDS011;7472;45.396;5.272;2023-01-09T00:56:16;1.10;;;1.00;;
14760;SDS011;7472;45.396;5.272;2023-01-09T00:58:45;2.22;;;1.10;;
14760;SDS011;7472;45.396;5.272;2023-01-09T01:01:13;1.48;;;1.10;;
14760;SDS011;7472;45.396;5.272;2023-01-09T01:03:40;4.50;;;1.15;;
14760;SDS011;7472;45.396;5.272;2023-01-09T01:06:08;1.25;;;1.05;;
14760;SDS011;7472;45.396;5.272;2023-01-09T01:08:58;2.22;;;0.85;;
14760;SDS011;7472;45.396;5.272;2023-01-09T01:11:25;0.93;;;0.82;;
14760;SDS011;7472;45.396;5.272;2023-01-09T01:13:54;1.30;;;1.20;;
14760;SDS011;7472;45.396;5.272;2023-01-09T01:16:22;1.60;;;0.85;;
14760;SDS011;7472;45.396;5.272;2023-01-09T01:18:49;0.50;;;0.50;;
14760;SDS011;7472;45.396;5.272;2023-01-09T01:21:17;0.40;;;0.40;;
14760;SDS011;7472;45.396;5.272;2023-01-09T01:23:44;0.60;;;0.30;;
14760;SDS011;7472;45.396;5.272;2023-01-09T01:26:12;0.52;;;0.52;;
14760;SDS011;7472;45.396;5.272;2023-01-09T01:28:40;1.10;;;0.50;;
14760;SDS011;7472;45.396;5.272;2023-01-09T01:31:13;0.93;;;0.60;;
14760;SDS011;7472;45.396;5.272;2023-01-09T01:33:41;0.43;;;0.43;;
14760;SDS011;7472;45.396;5.272;2023-01-09T01:36:09;0.30;;;0.30;;
14760;SDS011;7472;45.396;5.272;2023-01-09T01:38:36;0.55;;;0.50;;
14760;SDS011;7472;45.396;5.272;2023-01-09T01:41:03;0.30;;;0.30;;
14760;SDS011;7472;45.396;5.272;2023-01-09T01:43:47;0.40;;;0.40;;
14760;SDS011;7472;45.396;5.272;2023-01-09T01:46:16;0.57;;;0.40;;
14760;SDS011;7472;45.396;5.272;2023-01-09T01:48:44;0.90;;;0.47;;
14760;SDS011;7472;45.396;5.272;2023-01-09T01:51:11;0.85;;;0.40;;
14760;SDS011;7472;45.396;5.272;2023-01-09T01:53:41;0.60;;;0.40;;
14760;SDS011;7472;45.396;5.272;2023-01-09T01:56:09;0.52;;;0.32;;
14760;SDS011;7472;45.396;5.272;2023-01-09T01:58:41;0.30;;;0.30;;
14760;SDS011;7472;45.396;5.272;2023-01-09T02:01:09;0.50;;;0.50;;
14760;SDS011;7472;45.396;5.272;2023-01-09T02:03:38;1.02;;;0.40;;
14760;SDS011;7472;45.396;5.272;2023-01-09T02:06:06;0.90;;;0.40;;
14760;SDS011;7472;45.396;5.272;2023-01-09T02:08:34;0.50;;;0.50;;
14760;SDS011;7472;45.396;5.272;2023-01-09T02:11:03;0.50;;;0.50;;
14760;SDS011;7472;45.396;5.272;2023-01-09T02:13:31;2.67;;;0.63;;
14760;SDS011;7472;45.396;5.272;2023-01-09T02:16:01;0.85;;;0.50;;
14760;SDS011;7472;45.396;5.272;2023-01-09T02:21:22;0.50;;;0.50;;
14760;SDS011;7472;45.396;5.272;2023-01-09T02:32:17;4.03;;;0.60;;
14760;SDS011;7472;45.396;5.272;2023-01-09T02:34:50;1.67;;;0.70;;
14760;SDS011;7472;45.396;5.272;2023-01-09T02:37:20;3.42;;;0.45;;
14760;SDS011;7472;45.396;5.272;2023-01-09T02:39:53;0.75;;;0.60;;
14760;SDS011;7472;45.396;5.272;2023-01-09T02:42:22;3.13;;;0.52;;
14760;SDS011;7472;45.396;5.272;2023-01-09T02:44:51;0.40;;;0.40;;
14760;SDS011;7472;45.396;5.272;2023-01-09T02:47:36;0.52;;;0.45;;
14760;SDS011;7472;45.396;5.272;2023-01-09T02:50:05;1.08;;;0.70;;
14760;SDS011;7472;45.396;5.272;2023-01-09T02:52:35;0.47;;;0.40;;
14760;SDS011;7472;45.396;5.272;2023-01-09T02:55:09;0.68;;;0.60;;
14760;SDS011;7472;45.396;5.272;2023-01-09T02:57:46;0.57;;;0.57;;
14760;SDS011;7472;45.396;5.272;2023-01-09T03:00:20;0.85;;;0.63;;
14760;SDS011;7472;45.396;5.272;2023-01-09T03:02:50;0.60;;;0.55;;
14760;SDS011;7472;45.396;5.272;2023-01-09T03:05:20;1.98;;;0.85;;
14760;SDS011;7472;45.396;5.272;2023-01-09T03:07:51;0.68;;;0.45;;
14760;SDS011;7472;45.396;5.272;2023-01-09T03:10:22;0.45;;;0.45;;
14760;SDS011;7472;45.396;5.272;2023-01-09T03:12:52;2.08;;;0.50;;
14760;SDS011;7472;45.396;5.272;2023-01-09T03:15:20;1.20;;;0.70;;
14760;SDS011;7472;45.396;5.272;2023-01-09T03:17:49;0.95;;;0.60;;
14760;SDS011;7472;45.396;5.272;2023-01-09T03:20:18;0.73;;;0.50;;
14760;SDS011;7472;45.396;5.272;2023-01-09T03:22:52;1.27;;;0.70;;
14760;SDS011;7472;45.396;5.272;2023-01-09T03:25:19;0.75;;;0.60;;
14760;SDS011;7472;45.396;5.272;2023-01-09T03:27:54;0.60;;;0.60;;
14760;SDS011;7472;45.396;5.272;2023-01-09T03:30:22;1.25;;;0.60;;
14760;SDS011;7472;45.396;5.272;2023-01-09T03:32:51;2.17;;;0.73;;
14760;SDS011;7472;45.396;5.272;2023-01-09T03:35:18;2.08;;;0.77;;
14760;SDS011;7472;45.396;5.272;2023-01-09T03:37:46;1.20;;;1.10;;
14760;SDS011;7472;45.396;5.272;2023-01-09T03:40:13;1.35;;;1.10;;
14760;SDS011;7472;45.396;5.272;2023-01-09T03:42:41;2.88;;;0.88;;
14760;SDS011;7472;45.396;5.272;2023-01-09T03:45:08;1.20;;;1.10;;
14760;SDS011;7472;45.396;5.272;2023-01-09T03:47:36;3.22;;;1.10;;
14760;SDS011;7472;45.396;5.272;2023-01-09T03:50:05;2.72;;;1.00;;
14760;SDS011;7472;45.396;5.272;2023-01-09T03:52:33;1.23;;;0.93;;
14760;SDS011;7472;45.396;5.272;2023-01-09T03:55:01;1.85;;;0.80;;
14760;SDS011;7472;45.396;5.272;2023-01-09T03:57:28;2.95;;;1.10;;
14760;SDS011;7472;45.396;5.272;2023-01-09T03:59:56;1.92;;;1.00;;
14760;SDS011;7472;45.396;5.272;2023-01-09T04:02:23;6.93;;;0.80;;
14760;SDS011;7472;45.396;5.272;2023-01-09T04:04:50;3.15;;;0.60;;
14760;SDS011;7472;45.396;5.272;2023-01-09T04:07:19;3.15;;;1.40;;
14760;SDS011;7472;45.396;5.272;2023-01-09T04:09:47;4.65;;;2.53;;
14760;SDS011;7472;45.396;5.272;2023-01-09T04:12:14;2.47;;;1.52;;
14760;SDS011;7472;45.396;5.272;2023-01-09T04:14:41;3.33;;;1.48;;
14760;SDS011;7472;45.396;5.272;2023-01-09T04:17:09;2.92;;;1.30;;
14760;SDS011;7472;45.396;5.272;2023-01-09T04:19:36;5.00;;;1.08;;
14760;SDS011;7472;45.396;5.272;2023-01-09T04:22:04;5.32;;;1.40;;
14760;SDS011;7472;45.396;5.272;2023-01-09T04:24:32;3.58;;;1.30;;
14760;SDS011;7472;45.396;5.272;2023-01-09T04:27:00;5.60;;;1.05;;
14760;SDS011;7472;45.396;5.272;2023-01-09T04:29:27;2.40;;;1.58;;
14760;SDS011;7472;45.396;5.272;2023-01-09T04:31:55;2.17;;;0.90;;
14760;SDS011;7472;45.396;5.272;2023-01-09T04:34:22;3.40;;;1.55;;
14760;SDS011;7472;45.396;5.272;2023-01-09T04:36:50;2.55;;;1.73;;
14760;SDS011;7472;45.396;5.272;2023-01-09T04:39:18;5.43;;;2.55;;
14760;SDS011;7472;45.396;5.272;2023-01-09T04:41:46;2.45;;;1.63;;
14760;SDS011;7472;45.396;5.272;2023-01-09T04:44:14;3.97;;;1.20;;
14760;SDS011;7472;45.396;5.272;2023-01-09T04:46:42;2.42;;;1.15;;
14760;SDS011;7472;45.396;5.272;2023-01-09T04:49:09;4.88;;;1.23;;
14760;SDS011;7472;45.396;5.272;2023-01-09T04:51:37;5.45;;;1.30;;
14760;SDS011;7472;45.396;5.272;2023-01-09T04:54:04;1.50;;;1.10;;
14760;SDS011;7472;45.396;5.272;2023-01-09T04:56:32;2.05;;;0.95;;
14760;SDS011;7472;45.396;5.272;2023-01-09T04:59:00;1.50;;;0.50;;
14760;SDS011;7472;45.396;5.272;2023-01-09T05:01:28;1.50;;;0.60;;
14760;SDS011;7472;45.396;5.272;2023-01-09T05:03:55;0.50;;;0.50;;
14760;SDS011;7472;45.396;5.272;2023-01-09T05:06:23;1.48;;;0.47;;
14760;SDS011;7472;45.396;5.272;2023-01-09T05:08:50;1.27;;;0.55;;
14760;SDS011;7472;45.396;5.272;2023-01-09T05:11:18;1.67;;;0.68;;
14760;SDS011;7472;45.396;5.272;2023-01-09T05:13:45;1.63;;;0.70;;
14760;SDS011;7472;45.396;5.272;2023-01-09T05:16:14;1.67;;;0.60;;
14760;SDS011;7472;45.396;5.272;2023-01-09T05:18:42;1.63;;;0.70;;
14760;SDS011;7472;45.396;5.272;2023-01-09T05:21:09;1.90;;;0.80;;
14760;SDS011;7472;45.396;5.272;2023-01-09T05:23:37;2.75;;;1.05;;
14760;SDS011;7472;45.396;5.272;2023-01-09T05:26:04;4.18;;;0.93;;
14760;SDS011;7472;45.396;5.272;2023-01-09T05:28:32;1.80;;;0.52;;
14760;SDS011;7472;45.396;5.272;2023-01-09T05:30:59;1.63;;;0.68;;
14760;SDS011;7472;45.396;5.272;2023-01-09T05:33:28;1.75;;;0.60;;
14760;SDS011;7472;45.396;5.272;2023-01-09T05:35:55;5.22;;;0.70;;
14760;SDS011;7472;45.396;5.272;2023-01-09T05:38:23;2.85;;;0.80;;
14760;SDS011;7472;45.396;5.272;2023-01-09T05:40:50;1.30;;;0.70;;
14760;SDS011;7472;45.396;5.272;2023-01-09T05:43:18;1.02;;;0.52;;
14760;SDS011;7472;45.396;5.272;2023-01-09T05:45:45;3.33;;;1.10;;
14760;SDS011;7472;45.396;5.272;2023-01-09T05:48:12;2.42;;;0.80;;
14760;SDS011;7472;45.396;5.272;2023-01-09T05:50:41;1.48;;;0.70;;
14760;SDS011;7472;45.396;5.272;2023-01-09T05:53:09;4.03;;;1.33;;
14760;SDS011;7472;45.396;5.272;2023-01-09T05:55:36;1.90;;;0.80;;
14760;SDS011;7472;45.396;5.272;2023-01-09T05:58:03;1.30;;;0.88;;
14760;SDS011;7472;45.396;5.272;2023-01-09T06:00:31;3.25;;;0.75;;
14760;SDS011;7472;45.396;5.272;2023-01-09T06:02:58;3.15;;;1.02;;
14760;SDS011;7472;45.396;5.272;2023-01-09T06:05:25;3.10;;;1.40;;
14760;SDS011;7472;45.396;5.272;2023-01-09T06:07:54;12.02;;;1.92;;
14760;SDS011;7472;45.396;5.272;2023-01-09T06:10:22;6.68;;;1.83;;
14760;SDS011;7472;45.396;5.272;2023-01-09T06:12:49;4.00;;;1.50;;
14760;SDS011;7472;45.396;5.272;2023-01-09T06:15:18;4.55;;;1.42;;
14760;SDS011;7472;45.396;5.272;2023-01-09T06:17:46;5.30;;;1.92;;
14760;SDS011;7472;45.396;5.272;2023-01-09T06:20:14;2.97;;;1.50;;
14760;SDS011;7472;45.396;5.272;2023-01-09T06:22:41;8.30;;;2.40;;
14760;SDS011;7472;45.396;5.272;2023-01-09T06:25:10;2.80;;;0.82;;
14760;SDS011;7472;45.396;5.272;2023-01-09T06:27:38;2.20;;;1.30;;
14760;SDS011;7472;45.396;5.272;2023-01-09T06:30:06;4.00;;;1.10;;
14760;SDS011;7472;45.396;5.272;2023-01-09T06:32:34;3.08;;;1.48;;
14760;SDS011;7472;45.396;5.272;2023-01-09T06:35:01;4.78;;;2.25;;
14760;SDS011;7472;45.396;5.272;2023-01-09T06:37:29;6.15;;;3.38;;
14760;SDS011;7472;45.396;5.272;2023-01-09T06:39:57;4.80;;;2.50;;
14760;SDS011;7472;45.396;5.272;2023-01-09T06:42:26;12.88;;;3.75;;
14760;SDS011;7472;45.396;5.272;2023-01-09T06:44:53;6.40;;;3.92;;
14760;SDS011;7472;45.396;5.272;2023-01-09T06:47:21;8.90;;;4.57;;
14760;SDS011;7472;45.396;5.272;2023-01-09T06:49:48;6.95;;;3.90;;
14760;SDS011;7472;45.396;5.272;2023-01-09T06:52:16;5.57;;;2.67;;
14760;SDS011;7472;45.396;5.272;2023-01-09T06:54:43;6.25;;;2.47;;
14760;SDS011;7472;45.396;5.272;2023-01-09T06:57:10;6.07;;;3.78;;
14760;SDS011;7472;45.396;5.272;2023-01-09T06:59:40;10.05;;;8.00;;
14760;SDS011;7472;45.396;5.272;2023-01-09T07:02:09;8.80;;;6.63;;
14760;SDS011;7472;45.396;5.272;2023-01-09T07:04:40;5.35;;;3.92;;
14760;SDS011;7472;45.396;5.272;2023-01-09T07:07:08;4.22;;;2.13;;
14760;SDS011;7472;45.396;5.272;2023-01-09T07:09:35;6.03;;;1.23;;
14760;SDS011;7472;45.396;5.272;2023-01-09T07:12:03;4.05;;;2.53;;
14760;SDS011;7472;45.396;5.272;2023-01-09T07:14:30;7.18;;;3.65;;
14760;SDS011;7472;45.396;5.272;2023-01-09T07:16:59;5.95;;;3.95;;
14760;SDS011;7472;45.396;5.272;2023-01-09T07:19:27;8.40;;;4.40;;
14760;SDS011;7472;45.396;5.272;2023-01-09T07:21:54;9.55;;;4.10;;
14760;SDS011;7472;45.396;5.272;2023-01-09T07:24:22;9.02;;;5.20;;
14760;SDS011;7472;45.396;5.272;2023-01-09T07:26:49;7.90;;;4.45;;
14760;SDS011;7472;45.396;5.272;2023-01-09T07:29:17;9.60;;;4.20;;
14760;SDS011;7472;45.396;5.272;2023-01-09T07:31:44;7.20;;;3.00;;
14760;SDS011;7472;45.396;5.272;2023-01-09T07:34:13;9.70;;;3.60;;
14760;SDS011;7472;45.396;5.272;2023-01-09T07:36:40;7.07;;;3.40;;
14760;SDS011;7472;45.396;5.272;2023-01-09T07:39:10;3.10;;;2.10;;
14760;SDS011;7472;45.396;5.272;2023-01-09T07:41:38;5.45;;;2.20;;
14760;SDS011;7472;45.396;5.272;2023-01-09T07:44:05;3.63;;;1.92;;
14760;SDS011;7472;45.396;5.272;2023-01-09T07:46:33;3.83;;;2.00;;
14760;SDS011;7472;45.396;5.272;2023-01-09T07:49:00;5.82;;;1.70;;
14760;SDS011;7472;45.396;5.272;2023-01-09T07:51:29;3.15;;;1.23;;
14760;SDS011;7472;45.396;5.272;2023-01-09T07:53:56;1.90;;;1.10;;
14760;SDS011;7472;45.396;5.272;2023-01-09T07:56:24;3.47;;;1.17;;
14760;SDS011;7472;45.396;5.272;2023-01-09T07:58:51;7.68;;;1.40;;
14760;SDS011;7472;45.396;5.272;2023-01-09T08:01:18;1.63;;;1.00;;
14760;SDS011;7472;45.396;5.272;2023-01-09T08:03:46;3.00;;;1.20;;
14760;SDS011;7472;45.396;5.272;2023-01-09T08:06:13;4.70;;;1.42;;
14760;SDS011;7472;45.396;5.272;2023-01-09T08:08:42;1.55;;;1.13;;
14760;SDS011;7472;45.396;5.272;2023-01-09T08:11:09;3.67;;;1.17;;
14760;SDS011;7472;45.396;5.272;2023-01-09T08:13:37;5.05;;;1.20;;
14760;SDS011;7472;45.396;5.272;2023-01-09T08:16:04;3.42;;;1.23;;
14760;SDS011;7472;45.396;5.272;2023-01-09T08:18:32;3.72;;;1.08;;
14760;SDS011;7472;45.396;5.272;2023-01-09T08:20:59;2.00;;;1.02;;
14760;SDS011;7472;45.396;5.272;2023-01-09T08:23:27;5.18;;;1.20;;
14760;SDS011;7472;45.396;5.272;2023-01-09T08:25:55;4.35;;;1.40;;
14760;SDS011;7472;45.396;5.272;2023-01-09T08:28:23;22.40;;;10.35;;
14760;SDS011;7472;45.396;5.272;2023-01-09T08:30:50;13.60;;;8.80;;
14760;SDS011;7472;45.396;5.272;2023-01-09T08:33:18;9.45;;;3.90;;
14760;SDS011;7472;45.396;5.272;2023-01-09T08:35:45;10.00;;;6.30;;
14760;SDS011;7472;45.396;5.272;2023-01-09T08:38:13;4.60;;;3.08;;
14760;SDS011;7472;45.396;5.272;2023-01-09T08:40:40;3.90;;;1.55;;
14760;SDS011;7472;45.396;5.272;2023-01-09T08:43:09;2.17;;;1.08;;
14760;SDS011;7472;45.396;5.272;2023-01-09T08:45:54;2.30;;;0.88;;
14760;SDS011;7472;45.396;5.272;2023-01-09T08:48:38;2.35;;;1.80;;
14760;SDS011;7472;45.396;5.272;2023-01-09T08:51:07;3.17;;;1.55;;
14760;SDS011;7472;45.396;5.272;2023-01-09T08:53:35;4.32;;;3.08;;
14760;SDS011;7472;45.396;5.272;2023-01-09T08:56:02;4.15;;;3.03;;
14760;SDS011;7472;45.396;5.272;2023-01-09T08:58:31;4.97;;;2.72;;
14760;SDS011;7472;45.396;5.272;2023-01-09T09:00:59;4.55;;;2.38;;
14760;SDS011;7472;45.396;5.272;2023-01-09T09:03:26;5.47;;;2.78;;
14760;SDS011;7472;45.396;5.272;2023-01-09T09:05:54;19.00;;;11.57;;
14760;SDS011;7472;45.396;5.272;2023-01-09T09:08:21;8.32;;;4.20;;
14760;SDS011;7472;45.396;5.272;2023-01-09T09:10:48;15.55;;;9.65;;
14760;SDS011;7472;45.396;5.272;2023-01-09T09:13:16;26.10;;;16.40;;
14760;SDS011;7472;45.396;5.272;2023-01-09T09:15:45;36.17;;;26.10;;
14760;SDS011;7472;45.396;5.272;2023-01-09T09:18:12;14.25;;;7.18;;
14760;SDS011;7472;45.396;5.272;2023-01-09T09:20:39;5.35;;;3.05;;
14760;SDS011;7472;45.396;5.272;2023-01-09T09:23:07;14.85;;;9.48;;
14760;SDS011;7472;45.396;5.272;2023-01-09T09:25:34;26.35;;;18.73;;
14760;SDS011;7472;45.396;5.272;2023-01-09T09:28:03;13.98;;;4.68;;
14760;SDS011;7472;45.396;5.272;2023-01-09T09:30:31;6.90;;;3.40;;
14760;SDS011;7472;45.396;5.272;2023-01-09T09:33:00;5.85;;;3.10;;
14760;SDS011;7472;45.396;5.272;2023-01-09T09:35:28;18.10;;;12.82;;
14760;SDS011;7472;45.396;5.272;2023-01-09T09:37:57;22.27;;;15.15;;
14760;SDS011;7472;45.396;5.272;2023-01-09T09:40:35;11.52;;;6.90;;
14760;SDS011;7472;45.396;5.272;2023-01-09T09:43:10;8.90;;;2.67;;
14760;SDS011;7472;45.396;5.272;2023-01-09T09:46:02;6.07;;;2.67;;
14760;SDS011;7472;45.396;5.272;2023-01-09T09:48:34;7.32;;;2.95;;
14760;SDS011;7472;45.396;5.272;2023-01-09T09:51:17;5.35;;;2.78;;
14760;SDS011;7472;45.396;5.272;2023-01-09T09:53:53;5.72;;;3.13;;
14760;SDS011;7472;45.396;5.272;2023-01-09T09:56:24;6.47;;;3.55;;
14760;SDS011;7472;45.396;5.272;2023-01-09T09:58:53;7.22;;;3.20;;
14760;SDS011;7472;45.396;5.272;2023-01-09T10:01:23;5.60;;;2.67;;
14760;SDS011;7472;45.396;5.272;2023-01-09T10:03:54;5.85;;;2.97;;
14760;SDS011;7472;45.396;5.272;2023-01-09T10:06:25;5.13;;;3.58;;
14760;SDS011;7472;45.396;5.272;2023-01-09T10:08:57;5.82;;;2.78;;
14760;SDS011;7472;45.396;5.272;2023-01-09T10:11:29;5.15;;;2.45;;
14760;SDS011;7472;45.396;5.272;2023-01-09T10:13:58;4.55;;;2.63;;
14760;SDS011;7472;45.396;5.272;2023-01-09T10:16:35;3.63;;;1.85;;
14760;SDS011;7472;45.396;5.272;2023-01-09T10:19:09;5.80;;;2.05;;
14760;SDS011;7472;45.396;5.272;2023-01-09T10:21:42;5.97;;;2.53;;
14760;SDS011;7472;45.396;5.272;2023-01-09T10:24:20;6.68;;;3.22;;
14760;SDS011;7472;45.396;5.272;2023-01-09T10:26:51;6.35;;;2.33;;
14760;SDS011;7472;45.396;5.272;2023-01-09T10:31:58;6.72;;;1.70;;
14760;SDS011;7472;45.396;5.272;2023-01-09T10:34:37;3.00;;;1.83;;
14760;SDS011;7472;45.396;5.272;2023-01-09T10:37:09;4.10;;;2.05;;
14760;SDS011;7472;45.396;5.272;2023-01-09T10:39:40;4.45;;;2.10;;
14760;SDS011;7472;45.396;5.272;2023-01-09T10:42:10;3.92;;;1.90;;
14760;SDS011;7472;45.396;5.272;2023-01-09T10:44:39;3.47;;;1.67;;
14760;SDS011;7472;45.396;5.272;2023-01-09T10:47:14;2.83;;;1.48;;
14760;SDS011;7472;45.396;5.272;2023-01-09T10:49:45;4.82;;;1.77;;
14760;SDS011;7472;45.396;5.272;2023-01-09T10:52:14;4.13;;;1.73;;
14760;SDS011;7472;45.396;5.272;2023-01-09T10:54:46;4.43;;;1.30;;
14760;SDS011;7472;45.396;5.272;2023-01-09T10:57:18;3.47;;;1.63;;
14760;SDS011;7472;45.396;5.272;2023-01-09T10:59:49;3.67;;;1.90;;
14760;SDS011;7472;45.396;5.272;2023-01-09T11:02:20;5.57;;;1.70;;
14760;SDS011;7472;45.396;5.272;2023-01-09T11:04:51;4.38;;;2.10;;
14760;SDS011;7472;45.396;5.272;2023-01-09T11:07:19;3.35;;;1.48;;
14760;SDS011;7472;45.396;5.272;2023-01-09T11:09:54;6.78;;;1.95;;
14760;SDS011;7472;45.396;5.272;2023-01-09T11:12:22;4.53;;;1.40;;
14760;SDS011;7472;45.396;5.272;2023-01-09T11:14:50;12.00;;;1.80;;
14760;SDS011;7472;45.396;5.272;2023-01-09T11:17:18;3.97;;;1.70;;
14760;SDS011;7472;45.396;5.272;2023-01-09T11:20:00;4.30;;;1.80;;
14760;SDS011;7472;45.396;5.272;2023-01-09T11:22:28;5.68;;;1.35;;
14760;SDS011;7472;45.396;5.272;2023-01-09T11:24:58;8.93;;;6.00;;
14760;SDS011;7472;45.396;5.272;2023-01-09T11:27:25;6.25;;;2.58;;
14760;SDS011;7472;45.396;5.272;2023-01-09T11:30:11;6.88;;;1.77;;
14760;SDS011;7472;45.396;5.272;2023-01-09T11:32:40;5.38;;;1.65;;
14760;SDS011;7472;45.396;5.272;2023-01-09T11:35:14;5.20;;;1.63;;
14760;SDS011;7472;45.396;5.272;2023-01-09T11:37:43;9.40;;;5.65;;
14760;SDS011;7472;45.396;5.272;2023-01-09T11:40:15;19.23;;;11.68;;
14760;SDS011;7472;45.396;5.272;2023-01-09T11:45:27;12.50;;;6.88;;
14760;SDS011;7472;45.396;5.272;2023-01-09T11:47:56;13.45;;;7.63;;
14760;SDS011;7472;45.396;5.272;2023-01-09T11:50:26;5.65;;;2.47;;
14760;SDS011;7472;45.396;5.272;2023-01-09T11:53:06;9.80;;;5.45;;
14760;SDS011;7472;45.396;5.272;2023-01-09T11:55:37;5.35;;;1.70;;
14760;SDS011;7472;45.396;5.272;2023-01-09T11:58:04;5.03;;;1.75;;
14760;SDS011;7472;45.396;5.272;2023-01-09T12:00:37;4.15;;;1.50;;
14760;SDS011;7472;45.396;5.272;2023-01-09T12:03:08;3.58;;;1.83;;
14760;SDS011;7472;45.396;5.272;2023-01-09T12:05:45;6.35;;;2.25;;
14760;SDS011;7472;45.396;5.272;2023-01-09T12:08:17;3.05;;;1.55;;
14760;SDS011;7472;45.396;5.272;2023-01-09T12:10:51;4.20;;;1.60;;
14760;SDS011;7472;45.396;5.272;2023-01-09T12:13:27;4.90;;;1.48;;
14760;SDS011;7472;45.396;5.272;2023-01-09T12:16:00;3.25;;;1.13;;
14760;SDS011;7472;45.396;5.272;2023-01-09T12:21:22;4.13;;;1.42;;
14760;SDS011;7472;45.396;5.272;2023-01-09T12:23:56;4.32;;;1.45;;
14760;SDS011;7472;45.396;5.272;2023-01-09T12:26:27;6.13;;;1.25;;
14760;SDS011;7472;45.396;5.272;2023-01-09T12:31:46;6.05;;;1.67;;
14760;SDS011;7472;45.396;5.272;2023-01-09T12:34:25;3.42;;;1.35;;
14760;SDS011;7472;45.396;5.272;2023-01-09T12:36:57;3.88;;;1.55;;
14760;SDS011;7472;45.396;5.272;2023-01-09T12:39:31;3.45;;;1.40;;
14760;SDS011;7472;45.396;5.272;2023-01-09T12:44:48;5.82;;;1.67;;
14760;SDS011;7472;45.396;5.272;2023-01-09T12:47:25;2.00;;;0.88;;
14760;SDS011;7472;45.396;5.272;2023-01-09T12:49:57;3.75;;;1.40;;
14760;SDS011;7472;45.396;5.272;2023-01-09T12:52:31;7.05;;;4.53;;
14760;SDS011;7472;45.396;5.272;2023-01-09T12:55:02;4.70;;;3.72;;
14760;SDS011;7472;45.396;5.272;2023-01-09T12:57:33;3.13;;;1.30;;
14760;SDS011;7472;45.396;5.272;2023-01-09T13:00:02;5.28;;;1.17;;
14760;SDS011;7472;45.396;5.272;2023-01-09T13:02:31;7.10;;;1.58;;
14760;SDS011;7472;45.396;5.272;2023-01-09T13:05:02;4.50;;;1.33;;
14760;SDS011;7472;45.396;5.272;2023-01-09T13:07:34;5.78;;;2.00;;
14760;SDS011;7472;45.396;5.272;2023-01-09T13:10:05;5.75;;;2.28;;
14760;SDS011;7472;45.396;5.272;2023-01-09T13:12:35;2.63;;;1.17;;
14760;SDS011;7472;45.396;5.272;2023-01-09T13:15:06;3.83;;;1.85;;
14760;SDS011;7472;45.396;5.272;2023-01-09T13:17:41;3.78;;;1.55;;
14760;SDS011;7472;45.396;5.272;2023-01-09T13:20:16;3.47;;;1.60;;
14760;SDS011;7472;45.396;5.272;2023-01-09T13:22:45;4.35;;;0.98;;
14760;SDS011;7472;45.396;5.272;2023-01-09T13:25:19;8.18;;;5.95;;
14760;SDS011;7472;45.396;5.272;2023-01-09T13:27:54;6.00;;;2.80;;
14760;SDS011;7472;45.396;5.272;2023-01-09T13:30:28;5.43;;;2.95;;
14760;SDS011;7472;45.396;5.272;2023-01-09T13:33:00;5.57;;;2.85;;
14760;SDS011;7472;45.396;5.272;2023-01-09T13:35:30;2.05;;;1.20;;
14760;SDS011;7472;45.396;5.272;2023-01-09T13:37:59;3.35;;;0.95;;
14760;SDS011;7472;45.396;5.272;2023-01-09T13:40:27;3.33;;;1.00;;
14760;SDS011;7472;45.396;5.272;2023-01-09T13:42:57;4.10;;;0.98;;
14760;SDS011;7472;45.396;5.272;2023-01-09T13:45:24;1.73;;;0.82;;
14760;SDS011;7472;45.396;5.272;2023-01-09T13:48:16;1.65;;;1.00;;
14760;SDS011;7472;45.396;5.272;2023-01-09T13:50:44;2.50;;;0.75;;
14760;SDS011;7472;45.396;5.272;2023-01-09T13:56:08;1.88;;;1.58;;
14760;SDS011;7472;45.396;5.272;2023-01-09T14:01:41;4.50;;;1.58;;
14760;SDS011;7472;45.396;5.272;2023-01-09T14:04:35;4.78;;;1.67;;
14760;SDS011;7472;45.396;5.272;2023-01-09T14:07:13;1.80;;;1.10;;
14760;SDS011;7472;45.396;5.272;2023-01-09T14:09:44;3.85;;;1.05;;
14760;SDS011;7472;45.396;5.272;2023-01-09T14:12:14;2.58;;;0.90;;
14760;SDS011;7472;45.396;5.272;2023-01-09T14:14:43;2.22;;;1.38;;
14760;SDS011;7472;45.396;5.272;2023-01-09T14:17:14;1.58;;;0.93;;
14760;SDS011;7472;45.396;5.272;2023-01-09T14:19:42;4.05;;;1.67;;
14760;SDS011;7472;45.396;5.272;2023-01-09T14:22:21;2.17;;;0.82;;
14760;SDS011;7472;45.396;5.272;2023-01-09T14:24:49;4.82;;;1.58;;
14760;SDS011;7472;45.396;5.272;2023-01-09T14:30:22;3.75;;;2.00;;
14760;SDS011;7472;45.396;5.272;2023-01-09T14:32:56;1.38;;;1.17;;
14760;SDS011;7472;45.396;5.272;2023-01-09T14:35:28;4.10;;;1.30;;
14760;SDS011;7472;45.396;5.272;2023-01-09T14:38:00;3.10;;;1.02;;
14760;SDS011;7472;45.396;5.272;2023-01-09T14:40:28;4.97;;;1.63;;
14760;SDS011;7472;45.396;5.272;2023-01-09T14:42:57;1.75;;;1.42;;
14760;SDS011;7472;45.396;5.272;2023-01-09T14:45:26;4.88;;;1.80;;
14760;SDS011;7472;45.396;5.272;2023-01-09T14:47:55;2.60;;;1.52;;
14760;SDS011;7472;45.396;5.272;2023-01-09T14:50:27;2.05;;;1.15;;
14760;SDS011;7472;45.396;5.272;2023-01-09T14:52:58;5.10;;;1.67;;
14760;SDS011;7472;45.396;5.272;2023-01-09T14:55:26;3.55;;;1.02;;
14760;SDS011;7472;45.396;5.272;2023-01-09T14:58:08;4.07;;;1.65;;
14760;SDS011;7472;45.396;5.272;2023-01-09T15:00:37;6.65;;;1.48;;
14760;SDS011;7472;45.396;5.272;2023-01-09T15:03:12;3.47;;;0.80;;
14760;SDS011;7472;45.396;5.272;2023-01-09T15:05:39;1.52;;;0.80;;
14760;SDS011;7472;45.396;5.272;2023-01-09T15:08:10;4.90;;;1.13;;
14760;SDS011;7472;45.396;5.272;2023-01-09T15:10:41;2.42;;;0.82;;
14760;SDS011;7472;45.396;5.272;2023-01-09T15:13:11;0.93;;;0.57;;
14760;SDS011;7472;45.396;5.272;2023-01-09T15:15:44;2.10;;;1.20;;
14760;SDS011;7472;45.396;5.272;2023-01-09T15:18:16;8.45;;;2.42;;
14760;SDS011;7472;45.396;5.272;2023-01-09T15:20:44;3.67;;;1.85;;
14760;SDS011;7472;45.396;5.272;2023-01-09T15:23:19;3.03;;;1.13;;
14760;SDS011;7472;45.396;5.272;2023-01-09T15:25:47;5.13;;;0.90;;
14760;SDS011;7472;45.396;5.272;2023-01-09T15:28:20;1.75;;;1.13;;
14760;SDS011;7472;45.396;5.272;2023-01-09T15:30:53;1.75;;;0.65;;
14760;SDS011;7472;45.396;5.272;2023-01-09T15:33:22;1.95;;;1.15;;
14760;SDS011;7472;45.396;5.272;2023-01-09T15:35:50;5.50;;;1.45;;
14760;SDS011;7472;45.396;5.272;2023-01-09T15:38:24;4.07;;;1.02;;
14760;SDS011;7472;45.396;5.272;2023-01-09T15:40:52;4.97;;;1.00;;
14760;SDS011;7472;45.396;5.272;2023-01-09T15:43:23;4.13;;;1.77;;
14760;SDS011;7472;45.396;5.272;2023-01-09T15:45:52;2.80;;;0.93;;
14760;SDS011;7472;45.396;5.272;2023-01-09T15:48:22;7.00;;;1.83;;
14760;SDS011;7472;45.396;5.272;2023-01-09T15:50:52;8.05;;;2.38;;